Latest Weather Observations for Fawkner Beacon

IDV60901

Issued at 6:41 pm EST Monday 4 May 2026 (issued every 10 minutes, with the page automatically refreshed every 10 minutes)

About weather observations | Map of Melbourne area stations | Latest observations for Melbourne area | Other Formats
Station Details ID: 086376 Name: FAWKNER BEACON Lat: -37.95 Lon: 144.93 Height: 17.0 m
Data from the previous 72 hours. | See also: Recent months at Fawkner Beacon
Date/Time
EST
Temp
°C
App
Temp
°C
Dew
Point
°C
Rel
Hum
%
Delta-T
°C
Wind Press
QNH
hPa
Press
MSL
hPa
Rain since
9am
mm
Dir  Spd
km/h
Gust
km/h
Spd
kts
Gust
kts
04/06:30pm - - - - - N 41 48 22 26 - - -
04/06:00pm - - - - - N 44 52 24 28 - - -
04/05:30pm - - - - - N 46 57 25 31 - - -
04/05:00pm - - - - - N 56 65 30 35 - - -
04/04:30pm - - - - - N 54 69 29 37 - - -
04/04:00pm - - - - - N 52 63 28 34 - - -
04/03:30pm - - - - - N 52 63 28 34 - - -
04/03:00pm - - - - - N 50 61 27 33 - - -
04/02:30pm - - - - - N 52 63 28 34 - - -
04/02:00pm - - - - - N 52 65 28 35 - - -
04/01:30pm - - - - - N 50 65 27 35 - - -
04/01:00pm - - - - - N 50 76 27 41 - - -
04/12:32pm - - - - - N 46 65 25 35 - - -
04/12:30pm - - - - - N 46 63 25 34 - - -
04/12:00pm - - - - - N 48 61 26 33 - - -
04/11:30am - - - - - N 46 61 25 33 - - -
04/11:00am - - - - - N 50 59 27 32 - - -
04/10:30am - - - - - N 50 63 27 34 - - -
04/10:00am - - - - - N 46 54 25 29 - - -
04/09:30am - - - - - N 44 52 24 28 - - -
04/09:00am - - - - - N 46 54 25 29 - - -
04/08:30am - - - - - N 43 50 23 27 - - -
04/08:00am - - - - - N 41 50 22 27 - - -
04/07:30am - - - - - N 44 52 24 28 - - -
04/07:00am - - - - - N 43 50 23 27 - - -
04/06:30am - - - - - N 41 46 22 25 - - -
04/06:00am - - - - - N 43 48 23 26 - - -
04/05:30am - - - - - N 41 52 22 28 - - -
04/05:00am - - - - - N 39 48 21 26 - - -
04/04:30am - - - - - N 37 46 20 25 - - -
04/04:00am - - - - - N 37 46 20 25 - - -
04/03:30am - - - - - N 39 48 21 26 - - -
04/03:00am - - - - - N 37 46 20 25 - - -
04/02:30am - - - - - N 41 48 22 26 - - -
04/02:00am - - - - - N 35 43 19 23 - - -
04/01:30am - - - - - N 35 43 19 23 - - -
04/01:00am - - - - - N 37 43 20 23 - - -
04/12:30am - - - - - N 39 46 21 25 - - -
04/12:00am - - - - - N 39 44 21 24 - - -
 
Date/Time
EST
Temp
°C
App
Temp
°C
Dew
Point
°C
Rel
Hum
%
Delta-T
°C
Wind Press
QNH
hPa
Press
MSL
hPa
Rain since
9am
mm
Dir  Spd
km/h
Gust
km/h
Spd
kts
Gust
kts
03/11:30pm - - - - - N 35 43 19 23 - - -
03/11:00pm - - - - - N 35 41 19 22 - - -
03/10:30pm - - - - - N 33 41 18 22 - - -
03/10:00pm - - - - - N 30 35 16 19 - - -
03/09:30pm - - - - - N 32 39 17 21 - - -
03/09:00pm - - - - - N 30 35 16 19 - - -
03/08:30pm - - - - - N 30 35 16 19 - - -
03/08:00pm - - - - - N 32 35 17 19 - - -
03/07:30pm - - - - - N 26 30 14 16 - - -
03/07:00pm - - - - - N 24 26 13 14 - - -
03/06:30pm - - - - - N 22 28 12 15 - - -
03/06:00pm - - - - - NNW 22 28 12 15 - - -
03/05:30pm - - - - - NW 22 28 12 15 - - -
03/05:00pm - - - - - WNW 28 32 15 17 - - -
03/04:30pm - - - - - NNW 22 44 12 24 - - -
03/04:00pm - - - - - N 24 30 13 16 - - -
03/03:30pm - - - - - NNW 26 30 14 16 - - -
03/03:00pm - - - - - N 17 22 9 12 - - -
03/02:30pm - - - - - NW 15 20 8 11 - - -
03/02:00pm - - - - - NW 26 35 14 19 - - -
03/01:30pm - - - - - N 32 44 17 24 - - -
03/01:09pm - - - - - N 44 63 24 34 - - -
03/01:00pm - - - - - N 46 63 25 34 - - -
03/12:30pm - - - - - N 44 54 24 29 - - -
03/12:00pm - - - - - N 37 46 20 25 - - -
03/11:30am - - - - - N 39 57 21 31 - - -
03/11:22am - - - - - N 37 57 20 31 - - -
03/11:00am - - - - - N 43 57 23 31 - - -
03/10:30am - - - - - NNE 43 54 23 29 - - -
03/10:00am - - - - - N 46 59 25 32 - - -
03/09:49am - - - - - N 44 65 24 35 - - -
03/09:30am - - - - - N 37 46 20 25 - - -
03/09:00am - - - - - N 43 50 23 27 - - -
03/08:30am - - - - - N 43 54 23 29 - - -
03/08:00am - - - - - N 43 48 23 26 - - -
03/07:30am - - - - - N 48 61 26 33 - - -
03/07:00am - - - - - N 52 65 28 35 - - -
03/06:30am - - - - - N 56 70 30 38 - - -
03/06:00am - - - - - N 54 67 29 36 - - -
03/05:30am - - - - - N 54 67 29 36 - - -
03/05:20am - - - - - N 52 76 28 41 - - -
03/05:00am - - - - - N 54 65 29 35 - - -
03/04:34am - - - - - N 50 69 27 37 - - -
03/04:30am - - - - - N 46 59 25 32 - - -
03/04:14am - - - - - N 50 69 27 37 - - -
03/04:00am - - - - - N 43 59 23 32 - - -
03/03:56am - - - - - N 37 57 20 31 - - -
03/03:30am - - - - - N 30 35 16 19 - - -
03/03:00am - - - - - N 24 28 13 15 - - -
03/02:30am - - - - - N 24 28 13 15 - - -
03/02:00am - - - - - N 24 28 13 15 - - -
03/01:30am - - - - - N 22 26 12 14 - - -
03/01:00am - - - - - N 22 26 12 14 - - -
03/12:30am - - - - - N 20 26 11 14 - - -
03/12:00am - - - - - N 17 26 9 14 - - -
 
Date/Time
EST
Temp
°C
App
Temp
°C
Dew
Point
°C
Rel
Hum
%
Delta-T
°C
Wind Press
QNH
hPa
Press
MSL
hPa
Rain since
9am
mm
Dir  Spd
km/h
Gust
km/h
Spd
kts
Gust
kts
02/11:30pm - - - - - N 20 26 11 14 - - -
02/11:00pm - - - - - N 30 35 16 19 - - -
02/10:30pm - - - - - N 22 24 12 13 - - -
02/10:00pm - - - - - N 17 22 9 12 - - -
02/09:30pm - - - - - N 15 17 8 9 - - -
02/09:00pm - - - - - NNE 19 22 10 12 - - -
02/08:30pm - - - - - NNE 20 22 11 12 - - -
02/08:00pm - - - - - NNE 13 17 7 9 - - -
02/07:30pm - - - - - NNE 15 20 8 11 - - -
02/07:00pm - - - - - N 20 24 11 13 - - -
02/06:30pm - - - - - NNE 22 28 12 15 - - -
02/06:00pm - - - - - N 26 32 14 17 - - -
02/05:30pm - - - - - N 28 32 15 17 - - -
02/05:00pm - - - - - N 33 41 18 22 - - -
02/04:30pm - - - - - N 37 44 20 24 - - -
02/04:00pm - - - - - N 33 43 18 23 - - -
02/03:30pm - - - - - N 35 46 19 25 - - -
02/03:00pm - - - - - N 37 46 20 25 - - -
02/02:30pm - - - - - N 30 39 16 21 - - -
02/02:00pm - - - - - N 22 26 12 14 - - -
02/01:30pm - - - - - NNE 28 32 15 17 - - -
02/01:00pm - - - - - NNE 30 33 16 18 - - -
02/12:30pm - - - - - N 32 35 17 19 - - -
02/12:00pm - - - - - N 26 30 14 16 - - -
02/11:30am - - - - - N 30 35 16 19 - - -
02/11:00am - - - - - NNE 30 33 16 18 - - -
02/10:30am - - - - - NNE 26 32 14 17 - - -
02/10:00am - - - - - N 17 22 9 12 - - -
02/09:30am - - - - - N 17 20 9 11 - - -
02/09:00am - - - - - N 19 22 10 12 - - -
02/08:30am - - - - - N 19 22 10 12 - - -
02/08:00am - - - - - N 17 20 9 11 - - -
02/07:30am - - - - - N 17 22 9 12 - - -
02/07:00am - - - - - N 15 17 8 9 - - -
02/06:30am - - - - - N 15 17 8 9 - - -
02/06:00am - - - - - N 19 22 10 12 - - -
02/05:30am - - - - - N 15 17 8 9 - - -
02/05:00am - - - - - N 13 15 7 8 - - -
02/04:30am - - - - - N 15 17 8 9 - - -
02/04:00am - - - - - N 19 24 10 13 - - -
02/03:30am - - - - - N 22 24 12 13 - - -
02/03:00am - - - - - N 22 24 12 13 - - -
02/02:30am - - - - - N 22 24 12 13 - - -
02/02:00am - - - - - N 22 24 12 13 - - -
02/01:30am - - - - - N 22 24 12 13 - - -
02/01:00am - - - - - N 17 20 9 11 - - -
02/12:30am - - - - - N 19 20 10 11 - - -
02/12:00am - - - - - N 20 22 11 12 - - -
 
Date/Time
EST
Temp
°C
App
Temp
°C
Dew
Point
°C
Rel
Hum
%
Delta-T
°C
Wind Press
QNH
hPa
Press
MSL
hPa
Rain since
9am
mm
Dir  Spd
km/h
Gust
km/h
Spd
kts
Gust
kts
01/11:30pm - - - - - N 15 17 8 9 - - -
01/11:00pm - - - - - N 15 17 8 9 - - -
01/10:30pm - - - - - NNE 19 20 10 11 - - -
01/10:00pm - - - - - NNE 17 20 9 11 - - -
01/09:30pm - - - - - NNE 20 22 11 12 - - -
01/09:00pm - - - - - NNE 17 20 9 11 - - -
01/08:30pm - - - - - NNE 17 20 9 11 - - -
01/08:00pm - - - - - NNE 22 24 12 13 - - -
01/07:30pm - - - - - NNE 22 22 12 12 - - -
01/07:00pm - - - - - NNE 22 22 12 12 - - -

Latest Capital City Observations: Canberra | Sydney | Melbourne | Brisbane | Adelaide | Perth | Hobart | Darwin

Other formats

Comma delimited format used in spreadsheet applications
http://www.bom.gov.au/fwo/IDV60901/IDV60901.95872.axf

JavaScript Object Notation format (JSON) in row-major order
http://www.bom.gov.au/fwo/IDV60901/IDV60901.95872.json

Data quality

Most of these data are generated automatically and are frequently updated. Quality checks on data are not normally performed. It is possible for incorrect values to appear. Refer to information at About Latest Weather Observations and please check the disclaimer before using these data.